Regen radar Meer informatie rain snow radar


Bezoek onze andere website:

Template documentation
and downloads

HWS Template - cumulus versie

And another site



METAR rapporten vliegvelden

   
EHGG - Groningen/Eelde, Netherlands
Afstand tot: Z 20 km
Gewijzigd: 03-12-2022 00:55
Grotendeels bewolkt  
Grotendeels bewolkt  
   Wind: NO 11.1 km/h
Wind: NO 11.1 km/h
Temperatuur: 3°C
Voelt als: 0°C
Dauwpunt: 1°C
Vochtigheid: 87%
Barometer: 1025 hPa
Bewolking: Grotendeels bewolkt
Zicht: meer dan 10 km
Bewolking: Gedeeltelijk bewolkt 396.2 m,
Grotendeels bewolkt 487.7 m,
Grotendeels bewolkt 609.6 m
EHGG 022355Z AUTO 04006KT 9999 SCT013 BKN016 BKN020 03/01 Q1025
EHMA - Awg-1 Sea, Netherlands
Afstand tot: WNW 45 km
Gewijzigd: 03-12-2022 00:55
Grotendeels bewolkt  
Grotendeels bewolkt  
   Wind: Oosten 37 km/h
Wind: Oosten 37 km/h
Temperatuur: 7°C
Voelt als: 2°C
Dauwpunt: 3°C
Vochtigheid: 76%
Barometer: 1026 hPa
Bewolking: Grotendeels bewolkt
Zicht: meer dan 10 km
Bewolking: Licht bewolkt 365.8 m,
Gedeeltelijk bewolkt 579.1 m,
Grotendeels bewolkt 762 m
EHMA 022355Z AUTO 08020KT 030V130 9999 FEW012 SCT019 BKN025 07/03 Q1026
 

Script ontwikkeld door  Saratoga-weather.org Aangepast voor de template door  Weerstation Leuven

U vindt ons ook hier:

Het Weer Aktueel

UK Metoffice

European Weather Network

WeatherCloud

Weather Underground

Benelux Weer Netwerk

AWEKAS

WeatherlinkIP

HAMweather, WeatherForYou, PWS Weather

Apparatuur in gebruik:

Weerstation
Davis VP2

Weerprogramma
Cumulus

Davis VP2

Cumulus